sensor_id;sensor_type;location;lat;lon;timestamp;P1;durP1;ratioP1;P2;durP2;ratioP2
60964;SDS011;46834;51.100;6.886;2022-08-14T00:00:06;4.13;;;1.88;;
60964;SDS011;46834;51.100;6.886;2022-08-14T00:02:38;1.98;;;1.73;;
60964;SDS011;46834;51.100;6.886;2022-08-14T00:05:07;2.60;;;1.83;;
60964;SDS011;46834;51.100;6.886;2022-08-14T00:07:36;2.50;;;1.80;;
60964;SDS011;46834;51.100;6.886;2022-08-14T00:10:03;2.60;;;2.03;;
60964;SDS011;46834;51.100;6.886;2022-08-14T00:12:32;2.35;;;1.92;;
60964;SDS011;46834;51.100;6.886;2022-08-14T00:15:03;3.38;;;1.95;;
60964;SDS011;46834;51.100;6.886;2022-08-14T00:17:36;2.25;;;1.92;;
60964;SDS011;46834;51.100;6.886;2022-08-14T00:20:03;2.00;;;1.55;;
60964;SDS011;46834;51.100;6.886;2022-08-14T00:22:31;2.30;;;1.95;;
60964;SDS011;46834;51.100;6.886;2022-08-14T00:24:57;4.75;;;2.17;;
60964;SDS011;46834;51.100;6.886;2022-08-14T00:27:23;2.10;;;1.90;;
60964;SDS011;46834;51.100;6.886;2022-08-14T00:29:49;2.08;;;1.83;;
60964;SDS011;46834;51.100;6.886;2022-08-14T00:32:14;4.90;;;2.10;;
60964;SDS011;46834;51.100;6.886;2022-08-14T00:34:40;2.90;;;1.90;;
60964;SDS011;46834;51.100;6.886;2022-08-14T00:37:06;2.47;;;2.10;;
60964;SDS011;46834;51.100;6.886;2022-08-14T00:39:32;4.25;;;2.17;;
60964;SDS011;46834;51.100;6.886;2022-08-14T00:41:58;3.05;;;1.95;;
60964;SDS011;46834;51.100;6.886;2022-08-14T00:44:23;2.42;;;1.95;;
60964;SDS011;46834;51.100;6.886;2022-08-14T00:46:49;2.33;;;2.00;;
60964;SDS011;46834;51.100;6.886;2022-08-14T00:49:15;5.00;;;1.98;;
60964;SDS011;46834;51.100;6.886;2022-08-14T00:51:42;3.85;;;1.75;;
60964;SDS011;46834;51.100;6.886;2022-08-14T00:54:08;5.43;;;2.13;;
60964;SDS011;46834;51.100;6.886;2022-08-14T00:56:34;2.90;;;2.20;;
60964;SDS011;46834;51.100;6.886;2022-08-14T00:59:02;3.22;;;2.20;;
60964;SDS011;46834;51.100;6.886;2022-08-14T01:01:28;2.38;;;2.08;;
60964;SDS011;46834;51.100;6.886;2022-08-14T01:03:57;3.15;;;2.28;;
60964;SDS011;46834;51.100;6.886;2022-08-14T01:06:25;2.90;;;2.38;;
60964;SDS011;46834;51.100;6.886;2022-08-14T01:08:53;2.92;;;2.03;;
60964;SDS011;46834;51.100;6.886;2022-08-14T01:11:19;5.35;;;2.40;;
60964;SDS011;46834;51.100;6.886;2022-08-14T01:13:46;3.30;;;2.15;;
60964;SDS011;46834;51.100;6.886;2022-08-14T01:16:15;3.20;;;2.67;;
60964;SDS011;46834;51.100;6.886;2022-08-14T01:18:42;2.72;;;2.08;;
60964;SDS011;46834;51.100;6.886;2022-08-14T01:21:31;2.58;;;2.17;;
60964;SDS011;46834;51.100;6.886;2022-08-14T01:24:01;3.00;;;2.38;;
60964;SDS011;46834;51.100;6.886;2022-08-14T01:26:27;2.45;;;2.15;;
60964;SDS011;46834;51.100;6.886;2022-08-14T01:28:55;2.88;;;2.33;;
60964;SDS011;46834;51.100;6.886;2022-08-14T01:31:24;2.97;;;2.65;;
60964;SDS011;46834;51.100;6.886;2022-08-14T01:33:54;3.85;;;2.40;;
60964;SDS011;46834;51.100;6.886;2022-08-14T01:36:24;2.45;;;2.25;;
60964;SDS011;46834;51.100;6.886;2022-08-14T01:38:53;4.10;;;2.47;;
60964;SDS011;46834;51.100;6.886;2022-08-14T01:41:24;2.70;;;2.15;;
60964;SDS011;46834;51.100;6.886;2022-08-14T01:43:52;2.90;;;2.13;;
60964;SDS011;46834;51.100;6.886;2022-08-14T01:46:29;5.68;;;2.70;;
60964;SDS011;46834;51.100;6.886;2022-08-14T01:48:59;2.50;;;2.22;;
60964;SDS011;46834;51.100;6.886;2022-08-14T01:51:28;2.80;;;2.22;;
60964;SDS011;46834;51.100;6.886;2022-08-14T01:53:57;2.65;;;2.45;;
60964;SDS011;46834;51.100;6.886;2022-08-14T01:56:27;2.80;;;2.50;;
60964;SDS011;46834;51.100;6.886;2022-08-14T02:01:48;3.65;;;2.60;;
60964;SDS011;46834;51.100;6.886;2022-08-14T02:04:17;3.53;;;2.67;;
60964;SDS011;46834;51.100;6.886;2022-08-14T02:06:46;3.17;;;2.85;;
60964;SDS011;46834;51.100;6.886;2022-08-14T02:09:17;3.63;;;2.80;;
60964;SDS011;46834;51.100;6.886;2022-08-14T02:11:45;3.03;;;2.38;;
60964;SDS011;46834;51.100;6.886;2022-08-14T02:14:13;3.00;;;2.70;;
60964;SDS011;46834;51.100;6.886;2022-08-14T02:16:40;2.58;;;2.38;;
60964;SDS011;46834;51.100;6.886;2022-08-14T02:19:10;3.28;;;2.63;;
60964;SDS011;46834;51.100;6.886;2022-08-14T02:21:40;2.95;;;2.72;;
60964;SDS011;46834;51.100;6.886;2022-08-14T02:24:12;2.47;;;2.28;;
60964;SDS011;46834;51.100;6.886;2022-08-14T02:26:40;2.97;;;2.72;;
60964;SDS011;46834;51.100;6.886;2022-08-14T02:29:12;4.85;;;2.97;;
60964;SDS011;46834;51.100;6.886;2022-08-14T02:31:43;3.45;;;3.08;;
60964;SDS011;46834;51.100;6.886;2022-08-14T02:34:18;4.15;;;3.15;;
60964;SDS011;46834;51.100;6.886;2022-08-14T02:36:53;3.35;;;3.00;;
60964;SDS011;46834;51.100;6.886;2022-08-14T02:39:27;4.68;;;2.75;;
60964;SDS011;46834;51.100;6.886;2022-08-14T02:41:54;2.80;;;2.55;;
60964;SDS011;46834;51.100;6.886;2022-08-14T02:44:22;4.28;;;3.00;;
60964;SDS011;46834;51.100;6.886;2022-08-14T02:46:49;3.13;;;2.83;;
60964;SDS011;46834;51.100;6.886;2022-08-14T02:49:17;3.45;;;3.13;;
60964;SDS011;46834;51.100;6.886;2022-08-14T02:51:51;4.28;;;2.85;;
60964;SDS011;46834;51.100;6.886;2022-08-14T02:54:19;4.00;;;3.25;;
60964;SDS011;46834;51.100;6.886;2022-08-14T02:56:47;4.28;;;2.90;;
60964;SDS011;46834;51.100;6.886;2022-08-14T02:59:14;4.45;;;2.88;;
60964;SDS011;46834;51.100;6.886;2022-08-14T03:01:42;4.15;;;3.15;;
60964;SDS011;46834;51.100;6.886;2022-08-14T03:04:10;4.22;;;2.97;;
60964;SDS011;46834;51.100;6.886;2022-08-14T03:06:37;3.40;;;3.00;;
60964;SDS011;46834;51.100;6.886;2022-08-14T03:09:07;3.22;;;2.85;;
60964;SDS011;46834;51.100;6.886;2022-08-14T03:11:35;3.45;;;3.15;;
60964;SDS011;46834;51.100;6.886;2022-08-14T03:14:02;3.38;;;3.08;;
60964;SDS011;46834;51.100;6.886;2022-08-14T03:16:28;3.92;;;3.53;;
60964;SDS011;46834;51.100;6.886;2022-08-14T03:18:59;3.30;;;2.97;;
60964;SDS011;46834;51.100;6.886;2022-08-14T03:21:27;3.42;;;3.13;;
60964;SDS011;46834;51.100;6.886;2022-08-14T03:23:55;4.47;;;3.38;;
60964;SDS011;46834;51.100;6.886;2022-08-14T03:26:42;3.63;;;2.92;;
60964;SDS011;46834;51.100;6.886;2022-08-14T03:29:11;4.32;;;3.30;;
60964;SDS011;46834;51.100;6.886;2022-08-14T03:31:45;3.83;;;2.90;;
60964;SDS011;46834;51.100;6.886;2022-08-14T03:34:14;3.92;;;3.28;;
60964;SDS011;46834;51.100;6.886;2022-08-14T03:36:40;3.78;;;3.25;;
60964;SDS011;46834;51.100;6.886;2022-08-14T03:39:10;4.00;;;3.40;;
60964;SDS011;46834;51.100;6.886;2022-08-14T03:41:36;4.18;;;3.42;;
60964;SDS011;46834;51.100;6.886;2022-08-14T03:44:03;3.95;;;3.50;;
60964;SDS011;46834;51.100;6.886;2022-08-14T03:46:34;3.83;;;3.15;;
60964;SDS011;46834;51.100;6.886;2022-08-14T03:49:03;3.58;;;3.15;;
60964;SDS011;46834;51.100;6.886;2022-08-14T03:51:30;5.00;;;3.47;;
60964;SDS011;46834;51.100;6.886;2022-08-14T03:53:58;4.70;;;3.42;;
60964;SDS011;46834;51.100;6.886;2022-08-14T03:56:27;3.63;;;3.33;;
60964;SDS011;46834;51.100;6.886;2022-08-14T03:58:57;3.97;;;3.58;;
60964;SDS011;46834;51.100;6.886;2022-08-14T04:01:29;3.80;;;3.40;;
60964;SDS011;46834;51.100;6.886;2022-08-14T04:03:55;3.33;;;2.97;;
60964;SDS011;46834;51.100;6.886;2022-08-14T04:06:23;3.38;;;3.03;;
60964;SDS011;46834;51.100;6.886;2022-08-14T04:08:50;3.53;;;3.22;;
60964;SDS011;46834;51.100;6.886;2022-08-14T04:11:17;4.72;;;3.47;;
60964;SDS011;46834;51.100;6.886;2022-08-14T04:13:44;3.92;;;3.53;;
60964;SDS011;46834;51.100;6.886;2022-08-14T04:16:12;3.45;;;3.15;;
60964;SDS011;46834;51.100;6.886;2022-08-14T04:18:42;3.67;;;3.30;;
60964;SDS011;46834;51.100;6.886;2022-08-14T04:21:12;3.90;;;3.30;;
60964;SDS011;46834;51.100;6.886;2022-08-14T04:23:40;5.07;;;3.30;;
60964;SDS011;46834;51.100;6.886;2022-08-14T04:26:08;4.30;;;3.58;;
60964;SDS011;46834;51.100;6.886;2022-08-14T04:28:37;3.42;;;3.08;;
60964;SDS011;46834;51.100;6.886;2022-08-14T04:31:05;3.55;;;3.00;;
60964;SDS011;46834;51.100;6.886;2022-08-14T04:33:31;5.15;;;3.47;;
60964;SDS011;46834;51.100;6.886;2022-08-14T04:35:58;6.43;;;2.97;;
60964;SDS011;46834;51.100;6.886;2022-08-14T04:38:24;3.70;;;3.28;;
60964;SDS011;46834;51.100;6.886;2022-08-14T04:41:09;3.90;;;3.40;;
60964;SDS011;46834;51.100;6.886;2022-08-14T04:43:53;3.63;;;3.30;;
60964;SDS011;46834;51.100;6.886;2022-08-14T04:46:19;3.72;;;3.38;;
60964;SDS011;46834;51.100;6.886;2022-08-14T04:48:48;3.60;;;3.30;;
60964;SDS011;46834;51.100;6.886;2022-08-14T04:51:16;3.22;;;2.92;;
60964;SDS011;46834;51.100;6.886;2022-08-14T04:53:45;3.60;;;3.30;;
60964;SDS011;46834;51.100;6.886;2022-08-14T04:56:14;3.97;;;3.20;;
60964;SDS011;46834;51.100;6.886;2022-08-14T04:58:44;6.20;;;3.60;;
60964;SDS011;46834;51.100;6.886;2022-08-14T05:01:11;3.97;;;3.60;;
60964;SDS011;46834;51.100;6.886;2022-08-14T05:03:39;4.13;;;3.60;;
60964;SDS011;46834;51.100;6.886;2022-08-14T05:06:06;4.55;;;3.67;;
60964;SDS011;46834;51.100;6.886;2022-08-14T05:08:35;4.43;;;3.55;;
60964;SDS011;46834;51.100;6.886;2022-08-14T05:11:03;3.63;;;3.25;;
60964;SDS011;46834;51.100;6.886;2022-08-14T05:13:31;4.03;;;3.60;;
60964;SDS011;46834;51.100;6.886;2022-08-14T05:16:00;9.43;;;3.45;;
60964;SDS011;46834;51.100;6.886;2022-08-14T05:18:27;3.55;;;3.22;;
60964;SDS011;46834;51.100;6.886;2022-08-14T05:20:59;3.15;;;2.85;;
60964;SDS011;46834;51.100;6.886;2022-08-14T05:23:29;3.60;;;3.30;;
60964;SDS011;46834;51.100;6.886;2022-08-14T05:25:58;3.95;;;3.38;;
60964;SDS011;46834;51.100;6.886;2022-08-14T05:28:36;4.55;;;3.40;;
60964;SDS011;46834;51.100;6.886;2022-08-14T05:31:06;4.65;;;3.53;;
60964;SDS011;46834;51.100;6.886;2022-08-14T05:33:33;6.43;;;3.53;;
60964;SDS011;46834;51.100;6.886;2022-08-14T05:36:01;3.70;;;3.40;;
60964;SDS011;46834;51.100;6.886;2022-08-14T05:38:35;3.53;;;3.22;;
60964;SDS011;46834;51.100;6.886;2022-08-14T05:41:11;4.32;;;3.55;;
60964;SDS011;46834;51.100;6.886;2022-08-14T05:43:41;4.65;;;3.30;;
60964;SDS011;46834;51.100;6.886;2022-08-14T05:46:08;5.05;;;3.22;;
60964;SDS011;46834;51.100;6.886;2022-08-14T05:48:42;4.57;;;3.38;;
60964;SDS011;46834;51.100;6.886;2022-08-14T05:51:12;3.47;;;3.15;;
60964;SDS011;46834;51.100;6.886;2022-08-14T05:53:38;4.10;;;3.47;;
60964;SDS011;46834;51.100;6.886;2022-08-14T05:56:04;3.80;;;3.25;;
60964;SDS011;46834;51.100;6.886;2022-08-14T05:58:30;3.47;;;3.13;;
60964;SDS011;46834;51.100;6.886;2022-08-14T06:00:57;6.65;;;3.60;;
60964;SDS011;46834;51.100;6.886;2022-08-14T06:03:22;4.95;;;3.50;;
60964;SDS011;46834;51.100;6.886;2022-08-14T06:05:50;4.07;;;3.67;;
60964;SDS011;46834;51.100;6.886;2022-08-14T06:08:22;4.20;;;3.80;;
60964;SDS011;46834;51.100;6.886;2022-08-14T06:10:56;4.65;;;3.55;;
60964;SDS011;46834;51.100;6.886;2022-08-14T06:13:27;4.25;;;3.85;;
60964;SDS011;46834;51.100;6.886;2022-08-14T06:15:54;4.10;;;3.67;;
60964;SDS011;46834;51.100;6.886;2022-08-14T06:18:20;3.88;;;3.47;;
60964;SDS011;46834;51.100;6.886;2022-08-14T06:20:46;4.50;;;3.50;;
60964;SDS011;46834;51.100;6.886;2022-08-14T06:23:11;4.20;;;3.80;;
60964;SDS011;46834;51.100;6.886;2022-08-14T06:25:37;3.95;;;3.63;;
60964;SDS011;46834;51.100;6.886;2022-08-14T06:28:03;4.07;;;3.67;;
60964;SDS011;46834;51.100;6.886;2022-08-14T06:30:31;3.58;;;3.28;;
60964;SDS011;46834;51.100;6.886;2022-08-14T06:32:58;3.70;;;3.35;;
60964;SDS011;46834;51.100;6.886;2022-08-14T06:35:24;3.85;;;3.45;;
60964;SDS011;46834;51.100;6.886;2022-08-14T06:40:20;4.03;;;3.72;;
60964;SDS011;46834;51.100;6.886;2022-08-14T06:42:55;4.18;;;3.78;;
60964;SDS011;46834;51.100;6.886;2022-08-14T06:45:24;5.18;;;3.35;;
60964;SDS011;46834;51.100;6.886;2022-08-14T06:47:50;4.50;;;3.28;;
60964;SDS011;46834;51.100;6.886;2022-08-14T06:50:17;5.32;;;3.80;;
60964;SDS011;46834;51.100;6.886;2022-08-14T06:52:45;2.95;;;2.65;;
60964;SDS011;46834;51.100;6.886;2022-08-14T06:55:13;3.17;;;2.90;;
60964;SDS011;46834;51.100;6.886;2022-08-14T06:57:45;4.85;;;2.97;;
60964;SDS011;46834;51.100;6.886;2022-08-14T07:00:15;3.10;;;2.80;;
60964;SDS011;46834;51.100;6.886;2022-08-14T07:02:48;3.30;;;2.67;;
60964;SDS011;46834;51.100;6.886;2022-08-14T07:05:33;2.90;;;2.70;;
60964;SDS011;46834;51.100;6.886;2022-08-14T07:08:16;3.00;;;2.70;;
60964;SDS011;46834;51.100;6.886;2022-08-14T07:10:47;2.63;;;2.42;;
60964;SDS011;46834;51.100;6.886;2022-08-14T07:13:16;5.10;;;2.97;;
60964;SDS011;46834;51.100;6.886;2022-08-14T07:15:43;3.47;;;3.17;;
60964;SDS011;46834;51.100;6.886;2022-08-14T07:18:18;3.00;;;2.60;;
60964;SDS011;46834;51.100;6.886;2022-08-14T07:20:49;2.53;;;2.33;;
60964;SDS011;46834;51.100;6.886;2022-08-14T07:23:17;3.00;;;2.67;;
60964;SDS011;46834;51.100;6.886;2022-08-14T07:25:44;3.47;;;2.65;;
60964;SDS011;46834;51.100;6.886;2022-08-14T07:28:12;2.90;;;2.60;;
60964;SDS011;46834;51.100;6.886;2022-08-14T07:30:41;2.72;;;2.50;;
60964;SDS011;46834;51.100;6.886;2022-08-14T07:33:07;2.70;;;2.47;;
60964;SDS011;46834;51.100;6.886;2022-08-14T07:35:35;2.90;;;2.53;;
60964;SDS011;46834;51.100;6.886;2022-08-14T07:38:03;3.80;;;2.58;;
60964;SDS011;46834;51.100;6.886;2022-08-14T07:40:29;2.63;;;2.42;;
60964;SDS011;46834;51.100;6.886;2022-08-14T07:42:55;3.47;;;2.13;;
60964;SDS011;46834;51.100;6.886;2022-08-14T07:45:21;3.58;;;2.25;;
60964;SDS011;46834;51.100;6.886;2022-08-14T07:47:47;6.80;;;2.53;;
60964;SDS011;46834;51.100;6.886;2022-08-14T07:50:14;2.60;;;2.40;;
60964;SDS011;46834;51.100;6.886;2022-08-14T07:52:42;5.43;;;2.63;;
60964;SDS011;46834;51.100;6.886;2022-08-14T07:55:12;2.63;;;2.20;;
60964;SDS011;46834;51.100;6.886;2022-08-14T07:57:39;5.07;;;2.97;;
60964;SDS011;46834;51.100;6.886;2022-08-14T08:00:17;3.97;;;2.60;;
60964;SDS011;46834;51.100;6.886;2022-08-14T08:02:47;3.65;;;2.60;;
60964;SDS011;46834;51.100;6.886;2022-08-14T08:05:16;2.65;;;2.45;;
60964;SDS011;46834;51.100;6.886;2022-08-14T08:07:43;2.70;;;2.50;;
60964;SDS011;46834;51.100;6.886;2022-08-14T08:10:12;2.97;;;2.67;;
60964;SDS011;46834;51.100;6.886;2022-08-14T08:12:57;3.40;;;2.78;;
60964;SDS011;46834;51.100;6.886;2022-08-14T08:15:39;2.70;;;2.30;;
60964;SDS011;46834;51.100;6.886;2022-08-14T08:18:09;3.00;;;2.67;;
60964;SDS011;46834;51.100;6.886;2022-08-14T08:20:39;2.63;;;2.42;;
60964;SDS011;46834;51.100;6.886;2022-08-14T08:23:10;3.42;;;2.72;;
60964;SDS011;46834;51.100;6.886;2022-08-14T08:25:41;7.40;;;2.70;;
60964;SDS011;46834;51.100;6.886;2022-08-14T08:28:13;2.92;;;2.72;;
60964;SDS011;46834;51.100;6.886;2022-08-14T08:30:52;3.65;;;2.97;;
60964;SDS011;46834;51.100;6.886;2022-08-14T08:33:21;2.67;;;2.47;;
60964;SDS011;46834;51.100;6.886;2022-08-14T08:35:51;2.97;;;2.60;;
60964;SDS011;46834;51.100;6.886;2022-08-14T08:38:22;3.03;;;2.78;;
60964;SDS011;46834;51.100;6.886;2022-08-14T08:40:50;3.60;;;3.00;;
60964;SDS011;46834;51.100;6.886;2022-08-14T08:43:27;3.90;;;2.67;;
60964;SDS011;46834;51.100;6.886;2022-08-14T08:45:59;3.40;;;3.10;;
60964;SDS011;46834;51.100;6.886;2022-08-14T08:51:28;4.50;;;3.15;;
60964;SDS011;46834;51.100;6.886;2022-08-14T08:54:06;2.67;;;2.47;;
60964;SDS011;46834;51.100;6.886;2022-08-14T08:56:38;4.85;;;2.85;;
60964;SDS011;46834;51.100;6.886;2022-08-14T09:01:56;3.10;;;2.75;;
60964;SDS011;46834;51.100;6.886;2022-08-14T09:04:25;2.97;;;2.78;;
60964;SDS011;46834;51.100;6.886;2022-08-14T09:06:54;2.97;;;2.72;;
60964;SDS011;46834;51.100;6.886;2022-08-14T09:09:25;3.28;;;2.97;;
60964;SDS011;46834;51.100;6.886;2022-08-14T09:11:56;2.90;;;2.60;;
60964;SDS011;46834;51.100;6.886;2022-08-14T09:14:26;7.38;;;3.50;;
60964;SDS011;46834;51.100;6.886;2022-08-14T09:16:54;6.28;;;2.72;;
60964;SDS011;46834;51.100;6.886;2022-08-14T09:19:23;3.72;;;2.97;;
60964;SDS011;46834;51.100;6.886;2022-08-14T09:21:49;3.63;;;3.10;;
60964;SDS011;46834;51.100;6.886;2022-08-14T09:24:17;2.95;;;2.65;;
60964;SDS011;46834;51.100;6.886;2022-08-14T09:26:44;2.95;;;2.45;;
60964;SDS011;46834;51.100;6.886;2022-08-14T09:29:10;3.05;;;2.55;;
60964;SDS011;46834;51.100;6.886;2022-08-14T09:31:37;2.70;;;2.50;;
60964;SDS011;46834;51.100;6.886;2022-08-14T09:37:25;2.90;;;2.50;;
60964;SDS011;46834;51.100;6.886;2022-08-14T09:44:05;5.00;;;2.70;;
60964;SDS011;46834;51.100;6.886;2022-08-14T09:46:53;2.70;;;2.50;;
60964;SDS011;46834;51.100;6.886;2022-08-14T09:49:30;2.45;;;2.25;;
60964;SDS011;46834;51.100;6.886;2022-08-14T09:52:11;2.60;;;2.40;;
60964;SDS011;46834;51.100;6.886;2022-08-14T09:54:41;2.47;;;2.28;;
60964;SDS011;46834;51.100;6.886;2022-08-14T09:57:22;4.68;;;2.70;;
60964;SDS011;46834;51.100;6.886;2022-08-14T09:59:55;4.43;;;2.40;;
60964;SDS011;46834;51.100;6.886;2022-08-14T10:02:22;2.60;;;2.40;;
60964;SDS011;46834;51.100;6.886;2022-08-14T10:06:02;2.67;;;2.47;;
60964;SDS011;46834;51.100;6.886;2022-08-14T10:07:55;4.70;;;2.20;;
60964;SDS011;46834;51.100;6.886;2022-08-14T10:13:04;2.75;;;2.47;;
60964;SDS011;46834;51.100;6.886;2022-08-14T10:15:44;2.25;;;2.05;;
60964;SDS011;46834;51.100;6.886;2022-08-14T10:18:11;2.47;;;2.28;;
60964;SDS011;46834;51.100;6.886;2022-08-14T10:20:40;2.67;;;2.38;;
60964;SDS011;46834;51.100;6.886;2022-08-14T10:23:38;2.63;;;2.42;;
60964;SDS011;46834;51.100;6.886;2022-08-14T10:26:07;2.03;;;1.75;;
60964;SDS011;46834;51.100;6.886;2022-08-14T10:28:41;2.28;;;2.08;;
60964;SDS011;46834;51.100;6.886;2022-08-14T10:31:19;2.45;;;2.25;;
60964;SDS011;46834;51.100;6.886;2022-08-14T10:33:57;2.95;;;2.08;;
60964;SDS011;46834;51.100;6.886;2022-08-14T10:36:34;2.03;;;1.85;;
60964;SDS011;46834;51.100;6.886;2022-08-14T10:39:15;1.88;;;1.77;;
60964;SDS011;46834;51.100;6.886;2022-08-14T10:41:43;1.77;;;1.67;;
60964;SDS011;46834;51.100;6.886;2022-08-14T10:44:11;2.20;;;1.80;;
60964;SDS011;46834;51.100;6.886;2022-08-14T10:46:43;1.88;;;1.70;;
60964;SDS011;46834;51.100;6.886;2022-08-14T10:49:22;1.70;;;1.60;;
60964;SDS011;46834;51.100;6.886;2022-08-14T10:52:09;4.90;;;1.75;;
60964;SDS011;46834;51.100;6.886;2022-08-14T10:54:46;2.10;;;1.90;;
60964;SDS011;46834;51.100;6.886;2022-08-14T10:57:12;2.03;;;1.85;;
60964;SDS011;46834;51.100;6.886;2022-08-14T11:07:35;2.28;;;2.08;;
60964;SDS011;46834;51.100;6.886;2022-08-14T11:10:11;3.25;;;1.88;;
60964;SDS011;46834;51.100;6.886;2022-08-14T11:15:16;2.30;;;1.88;;
60964;SDS011;46834;51.100;6.886;2022-08-14T11:17:45;1.98;;;1.88;;
60964;SDS011;46834;51.100;6.886;2022-08-14T11:20:13;2.13;;;1.92;;
60964;SDS011;46834;51.100;6.886;2022-08-14T11:22:44;4.22;;;1.65;;
60964;SDS011;46834;51.100;6.886;2022-08-14T11:25:12;2.00;;;1.73;;
60964;SDS011;46834;51.100;6.886;2022-08-14T11:27:41;2.38;;;1.95;;
60964;SDS011;46834;51.100;6.886;2022-08-14T11:30:12;2.80;;;2.38;;
60964;SDS011;46834;51.100;6.886;2022-08-14T11:32:45;5.53;;;1.85;;
60964;SDS011;46834;51.100;6.886;2022-08-14T11:35:15;2.10;;;1.90;;
60964;SDS011;46834;51.100;6.886;2022-08-14T11:40:22;4.07;;;2.38;;
60964;SDS011;46834;51.100;6.886;2022-08-14T11:42:51;3.90;;;2.22;;
60964;SDS011;46834;51.100;6.886;2022-08-14T11:45:25;3.90;;;2.00;;
60964;SDS011;46834;51.100;6.886;2022-08-14T11:47:58;2.38;;;2.10;;
60964;SDS011;46834;51.100;6.886;2022-08-14T11:50:37;2.20;;;1.90;;
60964;SDS011;46834;51.100;6.886;2022-08-14T11:53:03;3.40;;;2.38;;
60964;SDS011;46834;51.100;6.886;2022-08-14T11:55:44;1.70;;;1.60;;
60964;SDS011;46834;51.100;6.886;2022-08-14T11:58:11;3.33;;;2.10;;
60964;SDS011;46834;51.100;6.886;2022-08-14T12:03:13;2.10;;;1.90;;
60964;SDS011;46834;51.100;6.886;2022-08-14T12:05:40;3.17;;;2.30;;
60964;SDS011;46834;51.100;6.886;2022-08-14T12:08:06;3.55;;;2.00;;
60964;SDS011;46834;51.100;6.886;2022-08-14T12:10:34;2.92;;;2.10;;
60964;SDS011;46834;51.100;6.886;2022-08-14T12:13:12;2.17;;;1.98;;
60964;SDS011;46834;51.100;6.886;2022-08-14T12:15:44;3.83;;;1.75;;
60964;SDS011;46834;51.100;6.886;2022-08-14T12:18:29;2.67;;;2.00;;
60964;SDS011;46834;51.100;6.886;2022-08-14T12:20:58;2.03;;;1.85;;
60964;SDS011;46834;51.100;6.886;2022-08-14T12:23:43;1.80;;;1.70;;
60964;SDS011;46834;51.100;6.886;2022-08-14T12:26:15;2.67;;;1.80;;
60964;SDS011;46834;51.100;6.886;2022-08-14T12:28:47;1.83;;;1.73;;
60964;SDS011;46834;51.100;6.886;2022-08-14T12:31:16;1.85;;;1.75;;
60964;SDS011;46834;51.100;6.886;2022-08-14T12:33:59;2.47;;;1.70;;
60964;SDS011;46834;51.100;6.886;2022-08-14T12:36:28;1.90;;;1.80;;
60964;SDS011;46834;51.100;6.886;2022-08-14T12:38:58;1.73;;;1.50;;
60964;SDS011;46834;51.100;6.886;2022-08-14T12:41:28;2.05;;;1.83;;
60964;SDS011;46834;51.100;6.886;2022-08-14T12:44:00;1.55;;;1.45;;
60964;SDS011;46834;51.100;6.886;2022-08-14T12:46:32;2.08;;;1.67;;
60964;SDS011;46834;51.100;6.886;2022-08-14T12:49:22;1.70;;;1.60;;
60964;SDS011;46834;51.100;6.886;2022-08-14T12:51:56;1.98;;;1.65;;
60964;SDS011;46834;51.100;6.886;2022-08-14T12:54:25;3.00;;;1.83;;
60964;SDS011;46834;51.100;6.886;2022-08-14T12:57:01;2.17;;;1.90;;
60964;SDS011;46834;51.100;6.886;2022-08-14T12:59:33;2.53;;;1.52;;
60964;SDS011;46834;51.100;6.886;2022-08-14T13:02:00;2.10;;;1.92;;
60964;SDS011;46834;51.100;6.886;2022-08-14T13:04:26;1.90;;;1.80;;
60964;SDS011;46834;51.100;6.886;2022-08-14T13:06:59;1.77;;;1.67;;
60964;SDS011;46834;51.100;6.886;2022-08-14T13:09:33;1.63;;;1.52;;
60964;SDS011;46834;51.100;6.886;2022-08-14T13:12:01;2.53;;;1.60;;
60964;SDS011;46834;51.100;6.886;2022-08-14T13:14:29;2.28;;;1.58;;
60964;SDS011;46834;51.100;6.886;2022-08-14T13:16:57;1.80;;;1.60;;
60964;SDS011;46834;51.100;6.886;2022-08-14T13:19:26;1.90;;;1.70;;
60964;SDS011;46834;51.100;6.886;2022-08-14T13:21:52;1.70;;;1.60;;
60964;SDS011;46834;51.100;6.886;2022-08-14T13:24:19;1.60;;;1.50;;
60964;SDS011;46834;51.100;6.886;2022-08-14T13:26:51;1.67;;;1.58;;
60964;SDS011;46834;51.100;6.886;2022-08-14T13:29:25;1.98;;;1.60;;
60964;SDS011;46834;51.100;6.886;2022-08-14T13:31:54;1.65;;;1.55;;
60964;SDS011;46834;51.100;6.886;2022-08-14T13:34:25;2.78;;;1.80;;
60964;SDS011;46834;51.100;6.886;2022-08-14T13:36:53;2.75;;;1.70;;
60964;SDS011;46834;51.100;6.886;2022-08-14T13:39:23;1.70;;;1.60;;
60964;SDS011;46834;51.100;6.886;2022-08-14T13:41:50;1.98;;;1.65;;
60964;SDS011;46834;51.100;6.886;2022-08-14T13:44:17;2.13;;;1.70;;
60964;SDS011;46834;51.100;6.886;2022-08-14T13:46:45;1.30;;;1.20;;
60964;SDS011;46834;51.100;6.886;2022-08-14T13:49:12;1.63;;;1.52;;
60964;SDS011;46834;51.100;6.886;2022-08-14T13:51:39;1.70;;;1.60;;
60964;SDS011;46834;51.100;6.886;2022-08-14T13:54:15;1.60;;;1.50;;
60964;SDS011;46834;51.100;6.886;2022-08-14T13:56:47;1.60;;;1.50;;
60964;SDS011;46834;51.100;6.886;2022-08-14T13:59:14;1.58;;;1.40;;
60964;SDS011;46834;51.100;6.886;2022-08-14T14:01:40;1.52;;;1.42;;
60964;SDS011;46834;51.100;6.886;2022-08-14T14:04:13;1.50;;;1.40;;
60964;SDS011;46834;51.100;6.886;2022-08-14T14:06:42;2.05;;;1.50;;
60964;SDS011;46834;51.100;6.886;2022-08-14T14:09:12;1.73;;;1.63;;
60964;SDS011;46834;51.100;6.886;2022-08-14T14:11:44;1.67;;;1.58;;
60964;SDS011;46834;51.100;6.886;2022-08-14T14:14:11;2.10;;;1.90;;
60964;SDS011;46834;51.100;6.886;2022-08-14T14:16:41;1.70;;;1.60;;
60964;SDS011;46834;51.100;6.886;2022-08-14T14:19:11;1.63;;;1.52;;
60964;SDS011;46834;51.100;6.886;2022-08-14T14:21:42;1.90;;;1.70;;
60964;SDS011;46834;51.100;6.886;2022-08-14T14:24:09;1.80;;;1.70;;
60964;SDS011;46834;51.100;6.886;2022-08-14T14:26:35;1.90;;;1.70;;
60964;SDS011;46834;51.100;6.886;2022-08-14T14:29:02;1.65;;;1.55;;
60964;SDS011;46834;51.100;6.886;2022-08-14T14:31:31;1.60;;;1.50;;
60964;SDS011;46834;51.100;6.886;2022-08-14T14:34:01;3.22;;;1.83;;
60964;SDS011;46834;51.100;6.886;2022-08-14T14:36:29;1.80;;;1.70;;
60964;SDS011;46834;51.100;6.886;2022-08-14T14:41:31;2.05;;;1.95;;
60964;SDS011;46834;51.100;6.886;2022-08-14T14:44:02;2.90;;;2.00;;
60964;SDS011;46834;51.100;6.886;2022-08-14T14:46:32;1.77;;;1.67;;
60964;SDS011;46834;51.100;6.886;2022-08-14T14:49:03;1.70;;;1.60;;
60964;SDS011;46834;51.100;6.886;2022-08-14T14:51:32;1.75;;;1.65;;
60964;SDS011;46834;51.100;6.886;2022-08-14T14:54:07;1.73;;;1.63;;
60964;SDS011;46834;51.100;6.886;2022-08-14T14:56:33;2.00;;;1.80;;
60964;SDS011;46834;51.100;6.886;2022-08-14T14:58:59;1.90;;;1.70;;
60964;SDS011;46834;51.100;6.886;2022-08-14T15:01:25;2.80;;;1.80;;
60964;SDS011;46834;51.100;6.886;2022-08-14T15:03:51;2.38;;;1.85;;
60964;SDS011;46834;51.100;6.886;2022-08-14T15:06:21;6.93;;;1.90;;
60964;SDS011;46834;51.100;6.886;2022-08-14T15:08:49;2.72;;;1.75;;
60964;SDS011;46834;51.100;6.886;2022-08-14T15:11:16;1.70;;;1.60;;
60964;SDS011;46834;51.100;6.886;2022-08-14T15:13:43;2.00;;;1.80;;
60964;SDS011;46834;51.100;6.886;2022-08-14T15:16:09;1.73;;;1.58;;
60964;SDS011;46834;51.100;6.886;2022-08-14T15:18:35;2.20;;;2.00;;
60964;SDS011;46834;51.100;6.886;2022-08-14T15:21:02;1.95;;;1.83;;
60964;SDS011;46834;51.100;6.886;2022-08-14T15:23:29;1.70;;;1.60;;
60964;SDS011;46834;51.100;6.886;2022-08-14T15:25:55;1.70;;;1.60;;
60964;SDS011;46834;51.100;6.886;2022-08-14T15:28:22;2.03;;;1.70;;
60964;SDS011;46834;51.100;6.886;2022-08-14T15:30:50;1.55;;;1.45;;
60964;SDS011;46834;51.100;6.886;2022-08-14T15:33:17;2.00;;;1.77;;
60964;SDS011;46834;51.100;6.886;2022-08-14T15:36:04;1.60;;;1.50;;
60964;SDS011;46834;51.100;6.886;2022-08-14T15:38:31;1.88;;;1.50;;
60964;SDS011;46834;51.100;6.886;2022-08-14T15:40:57;1.70;;;1.60;;
60964;SDS011;46834;51.100;6.886;2022-08-14T15:43:25;1.63;;;1.52;;